createdAt,value
2018-12-05T00:02:28.199Z,29.53
2018-12-05T00:05:26.054Z,30.00
2018-12-05T00:08:23.908Z,28.80
2018-12-05T00:11:21.628Z,29.77
2018-12-05T00:14:20.542Z,33.77
2018-12-05T00:17:18.281Z,30.83
2018-12-05T00:20:16.050Z,28.90
2018-12-05T00:23:13.921Z,29.70
2018-12-05T00:26:11.857Z,32.87
2018-12-05T00:29:09.713Z,32.50
2018-12-05T00:32:07.780Z,30.37
2018-12-05T00:35:05.819Z,36.53
2018-12-05T00:38:03.777Z,36.03
2018-12-05T00:41:01.760Z,42.50
2018-12-05T00:43:59.494Z,42.20
2018-12-05T00:54:38.143Z,51.67
2018-12-05T00:57:36.106Z,56.47
2018-12-05T01:00:34.078Z,51.57
2018-12-05T01:03:32.039Z,51.90
2018-12-05T01:06:29.998Z,52.63
2018-12-05T01:09:30.159Z,50.63
2018-12-05T01:12:29.095Z,57.80
2018-12-05T01:15:26.885Z,54.73
2018-12-05T01:18:24.894Z,54.57
2018-12-05T01:21:22.629Z,56.47
2018-12-05T01:24:20.606Z,61.93
2018-12-05T01:27:18.556Z,54.20
2018-12-05T01:30:16.552Z,62.63
2018-12-05T01:33:14.282Z,60.63
2018-12-05T01:36:12.199Z,58.77
2018-12-05T01:39:10.089Z,59.73
2018-12-05T01:42:08.057Z,56.80
2018-12-05T01:45:06.816Z,58.07
2018-12-05T01:48:04.776Z,64.67
2018-12-05T01:51:02.514Z,57.83
2018-12-05T01:54:00.678Z,54.10
2018-12-05T01:56:58.545Z,57.00
2018-12-05T01:59:56.314Z,56.83
2018-12-05T02:02:54.060Z,51.93
2018-12-05T02:05:52.058Z,47.27
2018-12-05T02:08:49.969Z,52.13
2018-12-05T02:11:47.760Z,42.53
2018-12-05T02:14:45.466Z,37.77
2018-12-05T02:17:43.545Z,37.27
2018-12-05T02:20:41.297Z,43.23
2018-12-05T02:23:39.061Z,44.47
2018-12-05T02:26:36.889Z,40.33
2018-12-05T02:33:15.219Z,47.43
2018-12-05T02:36:12.927Z,42.27
2018-12-05T02:39:11.616Z,44.00
2018-12-05T02:42:09.450Z,41.10
2018-12-05T02:45:07.313Z,41.00
2018-12-05T02:48:05.285Z,34.07
2018-12-05T02:51:03.187Z,36.17
2018-12-05T02:54:01.077Z,37.00
2018-12-05T02:56:58.843Z,38.83
2018-12-05T02:59:56.700Z,34.03
2018-12-05T03:02:55.796Z,39.67
2018-12-05T03:05:53.751Z,37.13
2018-12-05T03:08:52.524Z,39.37
2018-12-05T03:11:51.204Z,42.37
2018-12-05T03:14:49.147Z,39.03
2018-12-05T03:17:47.939Z,43.10
2018-12-05T03:20:45.896Z,38.67
2018-12-05T03:23:43.931Z,39.37
2018-12-05T03:26:41.849Z,40.17
2018-12-05T03:29:39.667Z,34.50
2018-12-05T03:32:38.451Z,31.97
2018-12-05T03:35:42.417Z,37.37
2018-12-05T03:38:40.390Z,36.47
2018-12-05T03:41:38.540Z,36.43
2018-12-05T03:44:36.196Z,36.30
2018-12-05T03:47:33.796Z,37.33
2018-12-05T03:50:31.598Z,35.63
2018-12-05T03:53:29.461Z,35.93
2018-12-05T03:56:27.259Z,30.37
2018-12-05T03:59:24.927Z,42.10
2018-12-05T04:02:22.737Z,34.97
2018-12-05T04:05:20.460Z,35.63
2018-12-05T04:08:18.630Z,37.90
2018-12-05T04:11:16.544Z,35.37
2018-12-05T04:14:14.613Z,34.47
2018-12-05T04:17:12.498Z,32.17
2018-12-05T04:20:10.449Z,42.23
2018-12-05T04:23:08.231Z,40.93
2018-12-05T04:26:05.936Z,34.43
2018-12-05T04:29:03.831Z,43.87
2018-12-05T04:32:01.818Z,36.23
2018-12-05T04:34:59.747Z,46.43
2018-12-05T04:37:57.753Z,41.30
2018-12-05T04:40:55.882Z,42.23
2018-12-05T04:43:53.838Z,48.33
2018-12-05T04:46:51.668Z,42.90
2018-12-05T04:49:49.661Z,63.87
2018-12-05T04:52:47.710Z,54.40
2018-12-05T04:55:45.566Z,45.30
2018-12-05T04:58:43.297Z,58.07
2018-12-05T05:01:41.329Z,45.70
2018-12-05T05:04:39.345Z,53.30
2018-12-05T05:07:37.222Z,50.73
2018-12-05T05:10:35.130Z,49.87
2018-12-05T05:13:33.117Z,58.20
2018-12-05T05:16:31.784Z,57.13
2018-12-05T05:19:29.747Z,52.43
2018-12-05T05:22:27.705Z,51.03
2018-12-05T05:25:25.646Z,124.73
2018-12-05T05:28:23.596Z,86.13
2018-12-05T05:31:23.819Z,101.73
2018-12-05T05:34:22.379Z,74.30
2018-12-05T05:37:20.357Z,124.50
2018-12-05T05:40:18.057Z,100.30
2018-12-05T05:43:15.970Z,98.37
2018-12-05T05:46:13.659Z,65.07
2018-12-05T05:49:11.787Z,64.70
2018-12-05T05:52:09.738Z,66.23
2018-12-05T05:55:08.406Z,56.30
2018-12-05T05:58:06.113Z,56.40
2018-12-05T06:01:03.912Z,41.33
2018-12-05T06:04:01.706Z,76.17
2018-12-05T06:06:59.526Z,115.17
2018-12-05T06:09:57.485Z,61.30
2018-12-05T06:12:55.527Z,52.30
2018-12-05T06:15:53.499Z,54.27
2018-12-05T06:18:51.667Z,50.93
2018-12-05T06:21:49.650Z,40.43
2018-12-05T06:24:47.590Z,47.47
2018-12-05T06:27:45.547Z,68.27
2018-12-05T06:30:43.386Z,42.30
2018-12-05T06:33:41.160Z,87.43
2018-12-05T06:36:39.076Z,51.87
2018-12-05T06:39:36.954Z,144.77
2018-12-05T06:42:34.781Z,84.53
2018-12-05T06:45:32.789Z,72.60
2018-12-05T06:48:30.848Z,92.60
2018-12-05T06:51:28.821Z,57.13
2018-12-05T06:54:26.546Z,55.23
2018-12-05T06:57:24.454Z,105.07
2018-12-05T07:00:23.067Z,40.57
2018-12-05T07:03:21.536Z,67.47
2018-12-05T07:06:20.105Z,73.83
2018-12-05T07:09:18.282Z,65.70
2018-12-05T07:12:16.250Z,82.03
2018-12-05T07:15:14.307Z,103.67
2018-12-05T07:18:12.369Z,196.07
2018-12-05T07:21:10.192Z,76.00
2018-12-05T07:24:09.040Z,97.10
2018-12-05T07:27:07.772Z,197.53
2018-12-05T07:30:05.518Z,69.77
2018-12-05T07:33:03.469Z,99.27
2018-12-05T07:36:01.265Z,105.70
2018-12-05T07:38:59.298Z,81.30
2018-12-05T07:41:57.356Z,172.90
2018-12-05T07:44:56.136Z,186.03
2018-12-05T07:47:54.076Z,136.23
2018-12-05T07:50:51.772Z,136.13
2018-12-05T07:53:49.592Z,159.93
2018-12-05T07:56:47.459Z,346.73
2018-12-05T07:59:45.292Z,124.90
2018-12-05T08:02:43.104Z,105.67
2018-12-05T08:05:40.946Z,80.53
2018-12-05T08:08:38.964Z,70.73
2018-12-05T08:11:36.774Z,82.20
2018-12-05T08:14:34.887Z,68.33
2018-12-05T08:17:32.716Z,66.83
2018-12-05T08:20:31.515Z,116.67
2018-12-05T08:23:29.380Z,64.23
2018-12-05T08:26:27.212Z,102.17
2018-12-05T08:29:25.105Z,82.27
2018-12-05T08:32:23.058Z,112.90
2018-12-05T08:35:21.073Z,110.87
2018-12-05T08:38:19.018Z,137.17
2018-12-05T08:41:17.101Z,129.63
2018-12-05T08:44:15.165Z,90.63
2018-12-05T08:47:13.030Z,83.97
2018-12-05T08:50:11.069Z,80.93
2018-12-05T08:53:09.066Z,92.83
2018-12-05T08:56:06.728Z,152.23
2018-12-05T08:59:04.758Z,133.40
2018-12-05T09:02:02.615Z,188.23
2018-12-05T09:05:00.481Z,141.50
2018-12-05T09:07:58.674Z,311.93
2018-12-05T09:10:56.511Z,246.00
2018-12-05T09:13:54.358Z,211.40
2018-12-05T09:16:52.283Z,137.83
2018-12-05T09:19:50.969Z,210.63
2018-12-05T09:22:48.561Z,216.03
2018-12-05T09:25:46.502Z,246.77
2018-12-05T09:28:44.381Z,159.87
2018-12-05T09:31:42.290Z,155.20
2018-12-05T09:34:40.075Z,158.67
2018-12-05T09:37:38.253Z,123.07
2018-12-05T09:40:36.095Z,77.00
2018-12-05T09:43:34.246Z,153.53
2018-12-05T09:46:32.095Z,129.10
2018-12-05T09:49:31.487Z,87.83
2018-12-05T09:52:30.041Z,117.50
2018-12-05T09:55:27.955Z,127.60
2018-12-05T09:58:25.722Z,159.00
2018-12-05T10:01:23.731Z,160.13
2018-12-05T10:04:21.679Z,109.80
2018-12-05T10:07:19.466Z,70.27
2018-12-05T10:10:18.209Z,64.97
2018-12-05T10:13:16.022Z,150.60
2018-12-05T10:16:13.881Z,177.43
2018-12-05T10:19:11.786Z,92.10
2018-12-05T10:22:09.552Z,154.83
2018-12-05T10:25:08.313Z,39.97
2018-12-05T10:28:06.177Z,50.23
2018-12-05T10:31:03.932Z,35.47
2018-12-05T10:34:01.782Z,50.67
2018-12-05T10:36:59.742Z,31.27
2018-12-05T10:39:57.677Z,64.60
2018-12-05T10:42:55.544Z,54.90
2018-12-05T10:45:53.601Z,116.97
2018-12-05T10:48:51.434Z,36.23
2018-12-05T10:51:49.432Z,95.33
2018-12-05T10:54:47.415Z,83.53
2018-12-05T10:57:45.408Z,92.40
2018-12-05T11:00:50.270Z,70.23
2018-12-05T11:03:49.287Z,35.83
2018-12-05T11:10:42.908Z,50.20
2018-12-05T11:17:38.969Z,49.77
2018-12-05T11:20:42.753Z,48.03
2018-12-05T11:23:47.511Z,113.10
2018-12-05T11:26:47.041Z,87.03
2018-12-05T11:29:45.982Z,42.43
2018-12-05T11:32:44.820Z,30.87
2018-12-05T11:35:43.590Z,23.00
2018-12-05T11:38:42.468Z,31.67
2018-12-05T11:41:40.448Z,31.73
2018-12-05T11:47:38.765Z,30.47
2018-12-05T11:50:06.696Z,52.33
2018-12-05T11:52:34.250Z,39.50
2018-12-05T11:55:01.805Z,25.67
2018-12-05T11:57:29.372Z,22.77
2018-12-05T11:59:57.015Z,22.87
2018-12-05T12:02:24.582Z,24.50
2018-12-05T12:04:53.812Z,22.17
2018-12-05T12:07:21.373Z,20.10
2018-12-05T12:09:49.010Z,31.23
2018-12-05T12:12:22.440Z,21.60
2018-12-05T12:14:50.076Z,30.20
2018-12-05T12:17:17.640Z,48.97
2018-12-05T12:19:45.205Z,43.13
2018-12-05T12:22:12.773Z,25.70
2018-12-05T12:24:40.328Z,22.53
2018-12-05T12:27:07.877Z,22.57
2018-12-05T12:29:35.474Z,25.50
2018-12-05T12:32:03.036Z,28.67
2018-12-05T12:34:30.591Z,20.93
2018-12-05T12:36:58.151Z,28.93
2018-12-05T12:39:25.734Z,30.53
2018-12-05T12:41:53.291Z,28.87
2018-12-05T12:44:20.850Z,28.03
2018-12-05T12:46:48.419Z,35.13
2018-12-05T12:49:15.984Z,27.70
2018-12-05T12:51:43.577Z,26.10
2018-12-05T12:54:11.150Z,24.50
2018-12-05T12:56:38.724Z,77.70
2018-12-05T12:59:06.280Z,38.70
2018-12-05T13:01:33.848Z,27.47
2018-12-05T13:04:01.407Z,28.20
2018-12-05T13:06:29.051Z,25.63
2018-12-05T13:08:56.858Z,27.57
2018-12-05T13:11:24.410Z,25.93
2018-12-05T13:13:51.966Z,26.13
2018-12-05T13:16:19.524Z,34.07
2018-12-05T13:18:47.078Z,29.47
2018-12-05T13:21:14.647Z,31.53
2018-12-05T13:23:42.204Z,28.20
2018-12-05T13:26:09.759Z,27.87
2018-12-05T13:28:37.372Z,25.73
2018-12-05T13:31:04.935Z,28.20
2018-12-05T13:33:32.499Z,27.07
2018-12-05T13:36:00.088Z,27.47
2018-12-05T13:38:27.639Z,28.83
2018-12-05T13:40:55.271Z,25.63
2018-12-05T13:43:22.824Z,29.07
2018-12-05T13:45:50.388Z,28.30
2018-12-05T13:48:17.946Z,41.73
2018-12-05T13:50:45.551Z,37.17
2018-12-05T13:53:13.219Z,32.53
2018-12-05T13:55:40.780Z,29.57
2018-12-05T13:58:08.358Z,33.97
2018-12-05T14:00:35.918Z,29.13
2018-12-05T14:03:03.482Z,28.53
2018-12-05T14:05:31.050Z,28.33
2018-12-05T14:07:58.610Z,27.93
2018-12-05T14:10:26.258Z,29.77
2018-12-05T14:12:55.872Z,31.77
2018-12-05T14:15:23.492Z,31.23
2018-12-05T14:17:51.065Z,34.30
2018-12-05T14:20:18.640Z,32.90
2018-12-05T14:22:46.209Z,31.53
2018-12-05T14:25:14.888Z,31.80
2018-12-05T14:27:42.560Z,42.53
2018-12-05T14:30:10.124Z,44.03
2018-12-05T14:32:37.767Z,38.90
2018-12-05T14:35:05.411Z,34.43
2018-12-05T14:37:33.022Z,34.43
2018-12-05T14:40:00.580Z,31.30
2018-12-05T14:42:28.163Z,33.27
2018-12-05T14:44:55.708Z,32.77
2018-12-05T14:47:23.271Z,29.53
2018-12-05T14:49:50.826Z,34.90
2018-12-05T14:52:18.381Z,35.43
2018-12-05T14:54:45.940Z,37.30
2018-12-05T14:57:13.502Z,36.17
2018-12-05T14:59:41.071Z,37.27
2018-12-05T15:02:08.619Z,35.20
2018-12-05T15:04:36.176Z,33.60
2018-12-05T15:07:03.885Z,41.30
2018-12-05T15:09:31.441Z,43.30
2018-12-05T15:11:59.078Z,37.80
2018-12-05T15:14:26.639Z,50.87
2018-12-05T15:16:54.191Z,44.17
2018-12-05T15:19:21.761Z,48.27
2018-12-05T15:21:49.314Z,42.17
2018-12-05T15:24:16.882Z,90.87
2018-12-05T15:26:44.456Z,52.13
2018-12-05T15:29:12.039Z,49.70
2018-12-05T15:31:39.694Z,70.77
2018-12-05T15:34:07.250Z,50.10
2018-12-05T15:36:34.801Z,63.33
2018-12-05T15:39:02.721Z,57.93
2018-12-05T15:41:30.293Z,56.67
2018-12-05T15:43:57.849Z,51.93
2018-12-05T15:46:25.419Z,57.17
2018-12-05T15:48:53.057Z,120.40
2018-12-05T15:51:20.613Z,63.63
2018-12-05T15:53:48.167Z,54.27
2018-12-05T15:56:15.746Z,67.10
2018-12-05T15:58:43.307Z,64.63
2018-12-05T16:01:10.979Z,79.20
2018-12-05T16:03:43.126Z,63.97
2018-12-05T16:06:08.113Z,73.57
2018-12-05T16:08:35.676Z,127.30
2018-12-05T16:11:03.244Z,96.37
2018-12-05T16:13:30.825Z,49.57
2018-12-05T16:15:58.384Z,60.93
2018-12-05T16:18:25.981Z,53.37
2018-12-05T16:20:53.538Z,60.07
2018-12-05T16:23:21.124Z,57.93
2018-12-05T16:25:48.687Z,48.73
2018-12-05T16:28:16.265Z,53.50
2018-12-05T16:30:43.837Z,62.37
2018-12-05T16:33:11.415Z,61.03
2018-12-05T16:35:38.989Z,54.57
2018-12-05T16:38:06.630Z,92.93
2018-12-05T16:40:34.223Z,96.37
2018-12-05T16:43:01.784Z,94.13
2018-12-05T16:45:29.358Z,56.37
2018-12-05T16:47:56.929Z,52.80
2018-12-05T16:50:24.494Z,45.80
2018-12-05T16:52:52.068Z,61.43
2018-12-05T16:55:19.629Z,138.80
2018-12-05T16:57:47.220Z,68.10
2018-12-05T17:00:14.775Z,179.30
2018-12-05T17:02:42.366Z,107.33
2018-12-05T17:05:10.005Z,133.87
2018-12-05T17:07:37.585Z,190.03
2018-12-05T17:10:05.598Z,258.53
2018-12-05T17:12:33.185Z,199.33
2018-12-05T17:15:00.745Z,508.20
2018-12-05T17:17:28.324Z,319.83
2018-12-05T17:19:55.892Z,491.80
2018-12-05T17:22:23.474Z,233.93
2018-12-05T17:24:51.027Z,441.97
2018-12-05T17:27:18.613Z,359.73
2018-12-05T17:29:46.164Z,155.23
2018-12-05T17:32:13.766Z,118.93
2018-12-05T17:34:41.324Z,113.13
2018-12-05T17:37:09.994Z,95.03
2018-12-05T17:39:37.970Z,142.40
2018-12-05T17:42:05.627Z,110.63
2018-12-05T17:44:33.187Z,109.30
2018-12-05T17:47:00.768Z,162.53
2018-12-05T17:49:28.401Z,79.17
2018-12-05T17:51:55.958Z,75.57
2018-12-05T17:54:23.531Z,88.57
2018-12-05T17:56:51.124Z,95.70
2018-12-05T17:59:18.705Z,144.33
2018-12-05T18:01:46.261Z,218.80
2018-12-05T18:04:13.841Z,133.33
2018-12-05T18:06:41.422Z,182.30
2018-12-05T18:09:09.144Z,203.80
2018-12-05T18:11:36.729Z,172.77
2018-12-05T18:14:04.382Z,172.00
2018-12-05T18:16:31.962Z,229.40
2018-12-05T18:18:59.545Z,406.33
2018-12-05T18:21:27.152Z,175.13
2018-12-05T18:23:54.736Z,360.03
2018-12-05T18:26:22.309Z,428.67
2018-12-05T18:28:49.897Z,236.83
2018-12-05T18:31:17.495Z,176.60
2018-12-05T18:33:45.074Z,210.77
2018-12-05T18:36:12.650Z,229.20
2018-12-05T18:38:40.236Z,135.47
2018-12-05T18:41:07.826Z,157.93
2018-12-05T18:43:35.531Z,130.17
2018-12-05T18:46:03.112Z,143.33
2018-12-05T18:48:30.692Z,338.50
2018-12-05T18:50:58.273Z,266.30
2018-12-05T18:53:25.861Z,118.80
2018-12-05T18:55:53.429Z,127.80
2018-12-05T18:58:20.997Z,117.27
2018-12-05T19:00:48.576Z,145.37
2018-12-05T19:03:16.330Z,165.03
2018-12-05T19:05:43.941Z,248.43
2018-12-05T19:08:11.558Z,218.00
2018-12-05T19:10:39.143Z,98.57
2018-12-05T19:13:06.778Z,134.73
2018-12-05T19:15:34.354Z,101.17
2018-12-05T19:18:01.922Z,202.60
2018-12-05T19:20:29.501Z,281.37
2018-12-05T19:22:57.084Z,272.87
2018-12-05T19:25:24.709Z,246.13
2018-12-05T19:27:52.278Z,156.43
2018-12-05T19:30:19.870Z,258.47
2018-12-05T19:32:47.452Z,508.47
2018-12-05T19:35:15.036Z,217.83
2018-12-05T19:37:42.624Z,302.03
2018-12-05T19:40:10.208Z,416.90
2018-12-05T19:42:37.829Z,184.60
2018-12-05T19:45:06.174Z,215.70
2018-12-05T19:47:33.766Z,211.57
2018-12-05T19:50:01.355Z,236.67
2018-12-05T19:52:28.948Z,156.93
2018-12-05T19:54:56.539Z,140.53
2018-12-05T19:57:24.131Z,149.17
2018-12-05T19:59:51.721Z,118.17
2018-12-05T20:02:19.305Z,107.70
2018-12-05T20:04:46.893Z,136.20
2018-12-05T20:07:16.068Z,100.60
2018-12-05T20:09:43.803Z,116.93
2018-12-05T20:12:11.381Z,137.27
2018-12-05T20:14:38.985Z,161.60
2018-12-05T20:17:06.720Z,87.60
2018-12-05T20:19:34.322Z,145.27
2018-12-05T20:22:01.901Z,94.00
2018-12-05T20:24:29.485Z,93.77
2018-12-05T20:29:31.175Z,133.87
2018-12-05T20:31:58.771Z,132.17
2018-12-05T20:34:26.341Z,61.30
2018-12-05T20:36:53.926Z,60.73
2018-12-05T20:39:26.013Z,59.77
2018-12-05T20:41:55.088Z,64.20
2018-12-05T20:44:22.670Z,62.73
2018-12-05T20:46:50.257Z,63.90
2018-12-05T20:49:17.851Z,79.93
2018-12-05T20:51:45.481Z,65.20
2018-12-05T20:54:13.066Z,78.20
2018-12-05T20:56:40.654Z,72.50
2018-12-05T20:59:08.266Z,72.67
2018-12-05T21:01:35.874Z,94.00
2018-12-05T21:04:03.542Z,124.33
2018-12-05T21:06:31.125Z,106.67
2018-12-05T21:08:58.697Z,83.73
2018-12-05T21:11:26.314Z,70.10
2018-12-05T21:13:53.875Z,133.47
2018-12-05T21:16:21.462Z,94.43
2018-12-05T21:18:49.030Z,75.03
2018-12-05T21:21:16.633Z,90.90
2018-12-05T21:23:44.190Z,95.30
2018-12-05T21:26:11.781Z,71.87
2018-12-05T21:28:39.341Z,112.13
2018-12-05T21:31:06.896Z,95.20
2018-12-05T21:33:34.893Z,85.40
2018-12-05T21:36:02.483Z,92.77
2018-12-05T21:38:30.042Z,81.60
2018-12-05T21:40:57.595Z,183.93
2018-12-05T21:43:25.162Z,118.80
2018-12-05T21:45:53.598Z,109.33
2018-12-05T21:48:21.180Z,107.23
2018-12-05T21:50:48.734Z,112.77
2018-12-05T21:53:16.292Z,137.33
2018-12-05T21:55:43.854Z,97.13
2018-12-05T21:58:11.412Z,83.07
2018-12-05T22:00:38.969Z,104.17
2018-12-05T22:03:06.547Z,77.70
2018-12-05T22:05:34.212Z,72.87
2018-12-05T22:08:01.778Z,83.93
2018-12-05T22:10:29.336Z,113.07
2018-12-05T22:12:56.900Z,60.47
2018-12-05T22:15:24.510Z,78.03
2018-12-05T22:17:52.069Z,59.57
2018-12-05T22:20:19.621Z,68.33
2018-12-05T22:22:47.173Z,61.03
2018-12-05T22:25:14.722Z,52.27
2018-12-05T22:27:42.298Z,70.57
2018-12-05T22:30:10.032Z,105.70
2018-12-05T22:32:37.595Z,61.07
2018-12-05T22:35:05.302Z,56.80
2018-12-05T22:37:32.860Z,57.23
2018-12-05T22:40:00.419Z,49.30
2018-12-05T22:42:27.969Z,47.37
2018-12-05T22:44:55.540Z,61.77
2018-12-05T22:47:23.100Z,64.07
2018-12-05T22:49:50.785Z,61.87
2018-12-05T22:52:18.349Z,57.03
2018-12-05T22:54:45.911Z,53.83
2018-12-05T22:57:13.741Z,44.70
2018-12-05T22:59:41.442Z,51.47
2018-12-05T23:02:09.113Z,51.17
2018-12-05T23:04:36.667Z,51.67
2018-12-05T23:07:06.231Z,46.10
2018-12-05T23:09:34.050Z,48.07
2018-12-05T23:12:02.347Z,51.33
2018-12-05T23:14:30.027Z,44.47
2018-12-05T23:16:57.687Z,46.57
2018-12-05T23:19:25.252Z,40.37
2018-12-05T23:21:52.812Z,45.23
2018-12-05T23:24:20.359Z,47.30
2018-12-05T23:26:47.921Z,40.33
2018-12-05T23:29:15.489Z,40.73
2018-12-05T23:31:43.046Z,45.20
2018-12-05T23:34:10.597Z,44.27
2018-12-05T23:36:38.157Z,39.53
2018-12-05T23:39:06.477Z,40.67
2018-12-05T23:41:34.113Z,35.30
2018-12-05T23:44:01.681Z,36.07
2018-12-05T23:46:29.241Z,32.90
2018-12-05T23:48:56.800Z,35.20
2018-12-05T23:51:24.367Z,35.07
2018-12-05T23:53:51.925Z,36.70
2018-12-05T23:56:19.553Z,32.77
2018-12-05T23:58:47.109Z,31.73
